Time;durP1;ratioP1;P1;durP2;ratioP2;P2;SDS_P1;SDS_P2;PMS_P1;PMS_P2;Temp;Humidity;BMP_temperature;BMP_pressure;BME280_temperature;BME280_humidity;BME280_pressure;Samples;Min_cycle;Max_cycle;Signal;HPM_P1;HPM_P2
2021/10/07 00:00:30;;;;;;;0.20;0.20;;;11.80;99.90;;;;;;5014330;28;20044;-77
2021/10/07 00:02:56;;;;;;;0.20;0.20;;;11.80;99.90;;;;;;5013151;28;20022;-76
2021/10/07 00:05:22;;;;;;;0.20;0.20;;;11.80;99.90;;;;;;5013755;28;20056;-77
2021/10/07 00:07:47;;;;;;;0.13;0.13;;;11.80;99.90;;;;;;5013571;28;20114;-77
2021/10/07 00:10:13;;;;;;;0.20;0.20;;;11.80;99.90;;;;;;5013090;28;20468;-77
2021/10/07 00:12:39;;;;;;;0.15;0.15;;;11.90;99.90;;;;;;5013618;28;20022;-78
2021/10/07 00:15:06;;;;;;;0.52;0.20;;;11.90;99.90;;;;;;5013043;28;20065;-77
2021/10/07 00:17:32;;;;;;;0.20;0.20;;;11.90;99.90;;;;;;5013674;28;20057;-77
2021/10/07 00:19:57;;;;;;;0.20;0.20;;;12.00;99.90;;;;;;5012833;28;20026;-77
2021/10/07 00:22:23;;;;;;;0.30;0.20;;;12.00;99.90;;;;;;5013692;28;20018;-76
2021/10/07 00:24:49;;;;;;;0.20;0.20;;;12.00;99.90;;;;;;5013394;28;20370;-77
2021/10/07 00:27:14;;;;;;;0.45;0.30;;;11.90;99.90;;;;;;5011530;28;20239;-75
2021/10/07 00:29:49;;;;;;;0.30;0.30;;;12.00;99.90;;;;;;5013281;28;20339;-76
2021/10/07 00:32:18;;;;;;;0.10;0.10;;;12.00;99.90;;;;;;5012739;28;20018;-76
2021/10/07 00:39:41;;;;;;;0.20;0.20;;;12.10;99.90;;;;;;5013284;28;20107;-77
2021/10/07 00:42:07;;;;;;;0.17;0.17;;;12.10;99.90;;;;;;5027623;28;20438;-76
2021/10/07 00:44:33;;;;;;;0.45;0.30;;;12.10;99.90;;;;;;5012654;28;20046;-76
2021/10/07 00:47:01;;;;;;;0.30;0.30;;;12.10;99.90;;;;;;5011109;28;20101;-76
2021/10/07 00:49:29;;;;;;;0.35;0.30;;;12.10;99.90;;;;;;5011705;28;20082;-76
2021/10/07 00:51:55;;;;;;;0.32;0.30;;;12.20;99.90;;;;;;5011645;28;20018;-76
2021/10/07 00:54:23;;;;;;;0.45;0.30;;;12.20;99.90;;;;;;5012073;28;20443;-77
2021/10/07 00:56:49;;;;;;;0.45;0.28;;;12.20;99.90;;;;;;5028097;28;20496;-77
2021/10/07 00:59:15;;;;;;;0.77;0.30;;;12.20;99.90;;;;;;5012004;28;20025;-77
2021/10/07 01:01:41;;;;;;;0.22;0.22;;;12.30;99.90;;;;;;5011519;28;20446;-76
2021/10/07 01:04:07;;;;;;;0.20;0.20;;;12.20;99.90;;;;;;5012246;28;20022;-76
2021/10/07 01:06:33;;;;;;;0.30;0.30;;;12.30;99.90;;;;;;5012724;28;20014;-76
2021/10/07 01:09:03;;;;;;;0.20;0.20;;;12.30;99.90;;;;;;5012291;28;20334;-75
2021/10/07 01:11:28;;;;;;;0.20;0.20;;;12.30;99.90;;;;;;5028230;28;20018;-76
2021/10/07 01:13:55;;;;;;;0.20;0.20;;;12.30;99.90;;;;;;5012713;28;20459;-76
2021/10/07 01:16:21;;;;;;;0.28;0.20;;;12.30;99.90;;;;;;5011800;28;20022;-76
2021/10/07 01:18:48;;;;;;;0.20;0.20;;;12.40;99.90;;;;;;5012896;28;20030;-77
2021/10/07 01:21:16;;;;;;;0.28;0.28;;;12.40;99.90;;;;;;5011451;28;20022;-78
2021/10/07 01:23:44;;;;;;;0.20;0.20;;;12.40;99.90;;;;;;5012537;28;20112;-77
2021/10/07 01:26:11;;;;;;;0.20;0.20;;;12.40;99.90;;;;;;5027009;28;20028;-77
2021/10/07 01:28:39;;;;;;;0.30;0.30;;;12.30;99.90;;;;;;5011053;28;20053;-78
2021/10/07 01:31:06;;;;;;;0.50;0.20;;;12.40;99.90;;;;;;5011798;28;20060;-77
2021/10/07 01:33:32;;;;;;;0.30;0.20;;;12.30;99.90;;;;;;5012130;28;20049;-77
2021/10/07 01:35:59;;;;;;;0.22;0.22;;;12.40;99.90;;;;;;5012407;28;20094;-77
2021/10/07 01:38:24;;;;;;;0.35;0.20;;;12.40;99.90;;;;;;5011999;28;20022;-77
2021/10/07 01:40:50;;;;;;;0.20;0.20;;;12.40;99.90;;;;;;5027867;28;20130;-77
2021/10/07 01:43:16;;;;;;;0.20;0.20;;;12.30;99.90;;;;;;5031242;28;20366;-77
2021/10/07 01:45:44;;;;;;;0.45;0.30;;;12.20;99.90;;;;;;5030865;28;20044;-76
2021/10/07 01:48:10;;;;;;;0.38;0.20;;;12.20;99.90;;;;;;5029967;28;20029;-76
2021/10/07 01:50:36;;;;;;;0.13;0.13;;;12.20;99.90;;;;;;5030721;28;20469;-76
2021/10/07 01:53:01;;;;;;;0.20;0.20;;;12.10;99.90;;;;;;5031421;28;20017;-75
2021/10/07 01:55:27;;;;;;;0.10;0.10;;;12.10;99.90;;;;;;5032081;28;20140;-76
2021/10/07 01:57:53;;;;;;;0.10;0.10;;;12.10;99.90;;;;;;5032222;28;20171;-77
2021/10/07 02:00:20;;;;;;;0.17;0.17;;;12.20;99.90;;;;;;5029986;28;20079;-76
2021/10/07 02:02:46;;;;;;;0.22;0.22;;;12.20;99.90;;;;;;5030708;28;20460;-76
2021/10/07 02:05:12;;;;;;;0.15;0.13;;;12.20;99.90;;;;;;5031529;28;20102;-76
2021/10/07 02:07:38;;;;;;;0.10;0.10;;;12.10;99.90;;;;;;5031856;28;20022;-77
2021/10/07 02:10:17;;;;;;;0.20;0.20;;;12.10;99.90;;;;;;5029791;28;20347;-76
2021/10/07 02:12:48;;;;;;;0.20;0.20;;;12.10;99.90;;;;;;5031755;28;20013;-77
2021/10/07 02:15:14;;;;;;;0.20;0.20;;;12.10;99.90;;;;;;5031157;28;20104;-77
2021/10/07 02:17:40;;;;;;;0.15;0.13;;;12.10;99.90;;;;;;5030602;28;20094;-77
2021/10/07 02:20:09;;;;;;;0.22;0.20;;;12.10;99.90;;;;;;5031119;28;20028;-77
2021/10/07 02:22:35;;;;;;;0.17;0.17;;;12.10;99.90;;;;;;5031581;28;20068;-75
2021/10/07 02:25:00;;;;;;;0.28;0.20;;;12.10;99.90;;;;;;5031612;28;20029;-76
2021/10/07 02:27:26;;;;;;;0.30;0.30;;;12.10;99.90;;;;;;5031000;28;20021;-75
2021/10/07 02:29:52;;;;;;;0.28;0.28;;;12.10;99.90;;;;;;5031529;28;20038;-76
2021/10/07 02:32:18;;;;;;;0.20;0.20;;;12.10;99.90;;;;;;5033617;28;20427;-76
2021/10/07 02:34:43;;;;;;;0.30;0.30;;;12.10;99.90;;;;;;5034004;28;20021;-76
2021/10/07 02:37:10;;;;;;;0.20;0.20;;;12.10;99.90;;;;;;5034641;28;20354;-76
2021/10/07 02:39:37;;;;;;;0.30;0.30;;;12.00;99.90;;;;;;5033936;28;20362;-76
2021/10/07 02:42:04;;;;;;;0.20;0.20;;;12.00;99.90;;;;;;5035213;28;20025;-77
2021/10/07 02:44:30;;;;;;;0.20;0.20;;;12.10;99.90;;;;;;5034513;28;20077;-77
2021/10/07 02:46:55;;;;;;;0.30;0.30;;;12.10;99.90;;;;;;5035544;28;20117;-77
2021/10/07 02:49:21;;;;;;;0.30;0.20;;;12.10;99.90;;;;;;5034419;28;20420;-78
2021/10/07 02:51:47;;;;;;;0.32;0.20;;;12.10;99.90;;;;;;5035120;28;20040;-77
2021/10/07 02:54:13;;;;;;;0.20;0.20;;;12.10;99.90;;;;;;5034371;28;20409;-77
2021/10/07 02:56:38;;;;;;;0.20;0.20;;;12.10;99.90;;;;;;5034920;28;20025;-77
2021/10/07 02:59:04;;;;;;;0.25;0.20;;;12.00;99.90;;;;;;5035012;28;20022;-77
2021/10/07 03:01:30;;;;;;;0.20;0.20;;;12.00;99.90;;;;;;5034057;28;20022;-77
2021/10/07 03:03:56;;;;;;;0.20;0.20;;;12.00;99.90;;;;;;5033269;28;20029;-77
2021/10/07 03:06:21;;;;;;;0.20;0.20;;;12.00;99.90;;;;;;5032896;28;20017;-77
2021/10/07 03:08:47;;;;;;;0.20;0.20;;;12.00;99.90;;;;;;5034686;28;20044;-78
2021/10/07 03:11:14;;;;;;;0.20;0.20;;;12.00;99.90;;;;;;5034399;28;20504;-77
2021/10/07 03:13:40;;;;;;;0.20;0.20;;;12.00;99.90;;;;;;5033424;28;20326;-77
2021/10/07 03:16:06;;;;;;;0.22;0.22;;;12.00;99.90;;;;;;5034868;28;20465;-77
2021/10/07 03:18:32;;;;;;;0.20;0.20;;;12.00;99.90;;;;;;5034045;28;20037;-77
2021/10/07 03:20:58;;;;;;;0.10;0.10;;;12.00;99.90;;;;;;5033147;28;20111;-77
2021/10/07 03:23:24;;;;;;;0.10;0.10;;;12.00;99.90;;;;;;5032670;28;20018;-77
2021/10/07 03:25:49;;;;;;;0.20;0.20;;;12.00;99.90;;;;;;5034443;28;20028;-77
2021/10/07 03:28:15;;;;;;;0.20;0.20;;;12.00;99.90;;;;;;5033760;28;20021;-76
2021/10/07 03:30:41;;;;;;;0.20;0.20;;;11.90;99.90;;;;;;5034334;28;20064;-77
2021/10/07 03:33:10;;;;;;;0.20;0.20;;;12.00;99.90;;;;;;5032968;28;20021;-77
2021/10/07 03:35:37;;;;;;;0.10;0.10;;;12.00;99.90;;;;;;5034174;28;20021;-77
2021/10/07 03:38:04;;;;;;;0.20;0.20;;;12.00;99.90;;;;;;5032817;28;20108;-77
2021/10/07 03:40:29;;;;;;;0.15;0.15;;;12.00;99.90;;;;;;5033028;28;20041;-77
2021/10/07 03:42:56;;;;;;;0.20;0.20;;;11.90;99.90;;;;;;5033524;28;20025;-77
2021/10/07 03:45:22;;;;;;;0.20;0.20;;;11.90;99.90;;;;;;5031633;28;20058;-77
2021/10/07 03:47:48;;;;;;;0.17;0.17;;;11.90;99.90;;;;;;5034010;28;20017;-77
2021/10/07 03:50:14;;;;;;;0.20;0.20;;;11.90;99.90;;;;;;5024799;28;20038;-77
2021/10/07 03:52:39;;;;;;;0.20;0.20;;;11.80;99.90;;;;;;5026139;28;20451;-76
2021/10/07 03:55:06;;;;;;;0.10;0.10;;;11.80;99.90;;;;;;5021704;28;20041;-77
2021/10/07 03:57:31;;;;;;;0.20;0.20;;;11.80;99.90;;;;;;5022002;28;20021;-77
2021/10/07 03:59:57;;;;;;;0.20;0.20;;;11.80;99.90;;;;;;5017746;28;20036;-76
2021/10/07 04:02:23;;;;;;;0.10;0.10;;;11.80;99.90;;;;;;5021040;28;20132;-77
2021/10/07 04:04:48;;;;;;;0.15;0.15;;;11.80;99.90;;;;;;5041794;28;20029;-76
2021/10/07 04:07:14;;;;;;;0.20;0.20;;;11.80;99.90;;;;;;5023842;28;20025;-76
2021/10/07 04:09:40;;;;;;;0.20;0.20;;;11.80;99.90;;;;;;5013303;28;20050;-76
2021/10/07 04:12:07;;;;;;;0.20;0.20;;;11.80;99.90;;;;;;5013592;28;20030;-76
2021/10/07 04:14:32;;;;;;;0.20;0.20;;;11.80;99.90;;;;;;5013143;28;20026;-76
2021/10/07 04:16:58;;;;;;;0.25;0.25;;;11.80;99.90;;;;;;5013416;28;20029;-77
2021/10/07 04:19:23;;;;;;;1.20;0.30;;;11.90;99.90;;;;;;5012545;28;20026;-76
2021/10/07 04:21:50;;;;;;;0.20;0.20;;;11.90;99.90;;;;;;5013372;28;20037;-76
2021/10/07 04:24:16;;;;;;;0.10;0.10;;;11.90;99.90;;;;;;5017837;28;20030;-76
2021/10/07 04:26:42;;;;;;;0.22;0.22;;;11.90;99.90;;;;;;5022347;28;20382;-76
2021/10/07 04:29:08;;;;;;;0.20;0.20;;;11.80;99.90;;;;;;5033462;28;20025;-76
2021/10/07 04:31:33;;;;;;;0.25;0.22;;;11.80;99.90;;;;;;5024281;28;20045;-76
2021/10/07 04:33:59;;;;;;;0.57;0.30;;;11.80;99.90;;;;;;5015823;28;20034;-76
2021/10/07 04:36:25;;;;;;;0.20;0.20;;;11.80;99.90;;;;;;5026364;28;20037;-77
2021/10/07 04:38:51;;;;;;;0.20;0.20;;;11.80;99.90;;;;;;5047717;28;20033;-77
2021/10/07 04:41:17;;;;;;;0.20;0.20;;;11.70;99.90;;;;;;5031857;28;20391;-76
2021/10/07 04:43:42;;;;;;;0.15;0.15;;;11.60;99.90;;;;;;5046024;28;20045;-82
2021/10/07 04:46:08;;;;;;;0.15;0.15;;;11.60;99.90;;;;;;5020890;28;20481;-84
2021/10/07 04:48:34;;;;;;;0.15;0.15;;;11.60;99.90;;;;;;5025748;28;20607;-83
2021/10/07 04:51:00;;;;;;;0.20;0.20;;;11.60;99.90;;;;;;5011164;28;20034;-83
2021/10/07 04:53:26;;;;;;;0.13;0.13;;;11.60;99.90;;;;;;5022011;28;20025;-85
2021/10/07 04:55:55;;;;;;;0.20;0.20;;;11.60;99.90;;;;;;5030782;28;20026;-82
2021/10/07 04:58:24;;;;;;;0.20;0.20;;;11.60;99.90;;;;;;5029075;28;20017;-81
2021/10/07 05:00:50;;;;;;;0.13;0.13;;;11.60;99.90;;;;;;5029919;28;20045;-81
2021/10/07 05:03:16;;;;;;;0.10;0.10;;;11.60;99.90;;;;;;5044860;28;20116;-79
2021/10/07 05:05:43;;;;;;;0.20;0.20;;;11.50;99.90;;;;;;5046969;28;20120;-82
2021/10/07 05:08:09;;;;;;;0.20;0.20;;;11.50;99.90;;;;;;5046871;28;20072;-83
2021/10/07 05:10:36;;;;;;;0.20;0.20;;;11.50;99.90;;;;;;5013394;28;20421;-83
2021/10/07 05:13:01;;;;;;;0.10;0.10;;;11.50;99.90;;;;;;5020028;28;20060;-83
2021/10/07 05:15:27;;;;;;;0.20;0.20;;;11.40;99.90;;;;;;5016964;28;20105;-83
2021/10/07 05:17:53;;;;;;;0.10;0.10;;;11.40;99.90;;;;;;5034135;28;20026;-83
2021/10/07 05:20:21;;;;;;;0.10;0.10;;;11.40;99.90;;;;;;5017204;28;20041;-80
2021/10/07 05:22:46;;;;;;;0.10;0.10;;;11.40;99.90;;;;;;5036037;28;20026;-81
2021/10/07 05:25:12;;;;;;;0.10;0.10;;;11.40;99.90;;;;;;5033612;28;20052;-83
2021/10/07 05:27:39;;;;;;;0.20;0.20;;;11.30;99.90;;;;;;5044468;28;20025;-75
2021/10/07 05:30:06;;;;;;;0.10;0.10;;;11.30;99.90;;;;;;5031294;28;20034;-75
2021/10/07 05:32:32;;;;;;;0.10;0.10;;;11.30;99.90;;;;;;5031317;28;20029;-75
2021/10/07 05:34:59;;;;;;;0.20;0.20;;;11.30;99.90;;;;;;5047318;28;20029;-75
2021/10/07 05:37:26;;;;;;;0.10;0.10;;;11.30;99.90;;;;;;5031343;28;20520;-75
2021/10/07 05:39:51;;;;;;;0.10;0.10;;;11.30;99.90;;;;;;5047146;28;20036;-75
2021/10/07 05:42:17;;;;;;;0.10;0.10;;;11.30;99.90;;;;;;5031445;28;20025;-75
2021/10/07 05:44:43;;;;;;;0.13;0.13;;;11.30;99.90;;;;;;5031476;28;20394;-75
2021/10/07 05:47:09;;;;;;;0.20;0.20;;;11.30;99.90;;;;;;5031484;28;20025;-75
2021/10/07 05:49:34;;;;;;;0.20;0.20;;;11.30;99.90;;;;;;5029808;28;20034;-75
2021/10/07 05:52:01;;;;;;;0.22;0.22;;;11.30;99.90;;;;;;5047047;28;20028;-75
2021/10/07 05:54:26;;;;;;;0.20;0.20;;;11.30;99.90;;;;;;5031123;28;20021;-75
2021/10/07 05:56:52;;;;;;;0.25;0.25;;;11.30;99.90;;;;;;5031491;28;20367;-75
2021/10/07 05:59:18;;;;;;;0.20;0.20;;;11.30;99.90;;;;;;5031515;28;20133;-75
2021/10/07 06:01:44;;;;;;;0.10;0.10;;;11.30;99.90;;;;;;5031688;28;20096;-75
2021/10/07 06:04:10;;;;;;;0.40;0.40;;;11.30;99.90;;;;;;5030340;28;20021;-75
2021/10/07 06:06:35;;;;;;;0.20;0.20;;;11.30;99.90;;;;;;5032758;28;20430;-75
2021/10/07 06:09:01;;;;;;;0.10;0.10;;;11.40;99.90;;;;;;5034164;28;20067;-75
2021/10/07 06:11:27;;;;;;;0.10;0.10;;;11.30;99.90;;;;;;5035044;28;20064;-75
2021/10/07 06:13:52;;;;;;;0.20;0.20;;;11.30;99.90;;;;;;5035450;28;20378;-75
2021/10/07 06:16:19;;;;;;;0.20;0.20;;;11.30;99.90;;;;;;5035786;28;20022;-75
2021/10/07 06:18:47;;;;;;;0.25;0.25;;;11.30;99.90;;;;;;5035155;28;20033;-74
2021/10/07 06:21:12;;;;;;;0.20;0.20;;;11.20;99.90;;;;;;5035500;28;20021;-75
2021/10/07 06:23:41;;;;;;;0.20;0.20;;;11.20;99.90;;;;;;5033422;28;20554;-75
2021/10/07 06:26:08;;;;;;;0.20;0.20;;;11.10;99.90;;;;;;5035298;28;20084;-75
2021/10/07 06:28:34;;;;;;;0.30;0.30;;;11.10;99.90;;;;;;5034572;28;20427;-75
2021/10/07 06:31:00;;;;;;;0.20;0.20;;;11.10;99.90;;;;;;5035103;28;20065;-75
2021/10/07 06:33:25;;;;;;;0.20;0.20;;;11.10;99.90;;;;;;5034565;28;20053;-75
2021/10/07 06:35:52;;;;;;;0.20;0.20;;;11.20;99.90;;;;;;5035107;28;20022;-75
2021/10/07 06:38:19;;;;;;;0.22;0.22;;;11.20;99.90;;;;;;5035074;28;20025;-75
2021/10/07 06:40:45;;;;;;;0.20;0.20;;;11.20;99.90;;;;;;5049654;28;20032;-75
2021/10/07 06:43:11;;;;;;;0.30;0.30;;;11.20;99.90;;;;;;5034717;28;20108;-77
2021/10/07 06:45:37;;;;;;;0.22;0.20;;;11.30;99.90;;;;;;5033036;28;20136;-74
2021/10/07 06:48:03;;;;;;;0.20;0.20;;;11.30;99.90;;;;;;5034805;28;20469;-74
2021/10/07 06:50:28;;;;;;;0.20;0.20;;;11.30;99.90;;;;;;5034252;28;20065;-76
2021/10/07 06:52:54;;;;;;;0.20;0.20;;;11.30;99.90;;;;;;5034534;28;20064;-75
2021/10/07 06:55:21;;;;;;;0.20;0.20;;;11.30;99.90;;;;;;5034683;28;20021;-76
2021/10/07 06:57:47;;;;;;;0.20;0.20;;;11.30;99.90;;;;;;5034642;28;20116;-76
2021/10/07 07:00:14;;;;;;;0.30;0.30;;;11.30;99.90;;;;;;5034631;28;20108;-75
2021/10/07 07:02:40;;;;;;;0.20;0.20;;;11.30;99.90;;;;;;5034645;28;20101;-75
2021/10/07 07:05:07;;;;;;;0.30;0.30;;;11.30;99.90;;;;;;5036055;28;20030;-77
2021/10/07 07:07:33;;;;;;;0.28;0.28;;;11.30;99.90;;;;;;5035514;28;20026;-77
2021/10/07 07:09:59;;;;;;;0.30;0.30;;;11.40;99.90;;;;;;5036156;28;20063;-77
2021/10/07 07:12:25;;;;;;;0.30;0.30;;;11.40;99.90;;;;;;5034717;28;20056;-76
2021/10/07 07:14:51;;;;;;;0.20;0.20;;;11.30;99.90;;;;;;5050884;28;20021;-76
2021/10/07 07:17:17;;;;;;;0.30;0.30;;;11.40;99.90;;;;;;5035293;28;20036;-76
2021/10/07 07:19:45;;;;;;;0.30;0.25;;;11.40;99.90;;;;;;5034745;28;20061;-77
2021/10/07 07:22:15;;;;;;;0.20;0.20;;;11.40;99.90;;;;;;5051035;28;20108;-76
2021/10/07 07:24:41;;;;;;;0.30;0.30;;;11.50;99.90;;;;;;5050439;28;20488;-76
2021/10/07 07:27:07;;;;;;;0.32;0.30;;;11.50;99.90;;;;;;5036490;28;20525;-76
2021/10/07 07:29:34;;;;;;;0.25;0.22;;;11.60;99.90;;;;;;5050227;28;20029;-77
2021/10/07 07:32:00;;;;;;;0.30;0.30;;;11.60;99.90;;;;;;5033861;28;20044;-75
2021/10/07 07:34:27;;;;;;;0.17;0.17;;;11.60;99.90;;;;;;5033488;28;20444;-75
2021/10/07 07:36:53;;;;;;;0.40;0.28;;;11.60;99.90;;;;;;5032786;28;20045;-75
2021/10/07 07:39:18;;;;;;;0.28;0.22;;;11.70;99.90;;;;;;5033818;28;20076;-76
2021/10/07 07:41:44;;;;;;;0.32;0.32;;;11.70;99.90;;;;;;5033411;28;20064;-76
2021/10/07 07:44:10;;;;;;;0.30;0.30;;;11.70;99.90;;;;;;5033808;28;20053;-76
2021/10/07 07:46:35;;;;;;;0.50;0.30;;;11.80;99.90;;;;;;5032923;28;20029;-76
2021/10/07 07:49:01;;;;;;;0.30;0.30;;;11.80;99.90;;;;;;5032449;28;20474;-76
2021/10/07 07:51:28;;;;;;;0.40;0.30;;;11.80;99.90;;;;;;5033564;28;20100;-75
2021/10/07 07:53:54;;;;;;;0.30;0.30;;;11.80;99.90;;;;;;5032375;28;20028;-75
2021/10/07 07:56:20;;;;;;;0.70;0.40;;;11.90;99.90;;;;;;5033789;28;20018;-74
2021/10/07 07:58:46;;;;;;;0.52;0.40;;;11.90;99.90;;;;;;5033025;28;20037;-74
2021/10/07 08:01:11;;;;;;;0.40;0.40;;;12.00;99.90;;;;;;5033588;28;20152;-77
2021/10/07 08:03:37;;;;;;;0.50;0.30;;;11.90;99.90;;;;;;5032903;28;20426;-74
2021/10/07 08:06:03;;;;;;;0.20;0.20;;;11.90;99.90;;;;;;5032432;28;20089;-74
2021/10/07 08:08:30;;;;;;;1.02;0.30;;;11.90;99.90;;;;;;5048009;28;20040;-75
2021/10/07 08:10:56;;;;;;;0.43;0.30;;;11.90;99.90;;;;;;5048609;28;20032;-75
2021/10/07 08:13:21;;;;;;;0.20;0.20;;;12.00;99.90;;;;;;5033101;28;20029;-75
2021/10/07 08:15:48;;;;;;;0.20;0.20;;;12.00;99.90;;;;;;5031266;28;20301;-75
2021/10/07 08:18:15;;;;;;;0.13;0.13;;;12.10;99.90;;;;;;5033470;28;20053;-75
2021/10/07 08:20:41;;;;;;;0.20;0.20;;;12.20;99.90;;;;;;5032673;28;20401;-74
2021/10/07 08:23:07;;;;;;;0.47;0.25;;;12.30;99.90;;;;;;5033263;28;20030;-74
2021/10/07 08:25:33;;;;;;;0.52;0.30;;;12.30;99.90;;;;;;5032576;28;20083;-74
2021/10/07 08:27:59;;;;;;;0.20;0.20;;;12.40;99.90;;;;;;5033570;28;20028;-74
2021/10/07 08:30:25;;;;;;;0.32;0.30;;;12.40;99.90;;;;;;5048185;28;20142;-74
2021/10/07 08:32:50;;;;;;;0.20;0.20;;;12.50;99.90;;;;;;5032399;28;20022;-75
2021/10/07 08:35:16;;;;;;;0.20;0.20;;;12.50;99.90;;;;;;5033100;28;20032;-75
2021/10/07 08:37:42;;;;;;;0.30;0.25;;;12.50;99.90;;;;;;5030628;28;20474;-75
2021/10/07 08:40:10;;;;;;;0.20;0.20;;;12.50;99.90;;;;;;5032612;28;20100;-75
2021/10/07 08:42:40;;;;;;;0.28;0.28;;;12.60;99.90;;;;;;5031875;28;20071;-75
2021/10/07 08:45:07;;;;;;;0.43;0.20;;;12.60;99.90;;;;;;5031072;28;20049;-75
2021/10/07 08:47:38;;;;;;;0.20;0.20;;;12.60;99.90;;;;;;5032127;28;20090;-75
2021/10/07 08:50:04;;;;;;;0.47;0.30;;;12.60;99.90;;;;;;5032626;28;20033;-75
2021/10/07 08:52:30;;;;;;;0.30;0.30;;;12.60;99.90;;;;;;5032403;28;20097;-75
2021/10/07 08:54:56;;;;;;;0.35;0.28;;;12.60;99.90;;;;;;5032570;28;20167;-75
2021/10/07 08:57:21;;;;;;;0.70;0.38;;;12.50;99.90;;;;;;5047831;28;20025;-75
2021/10/07 08:59:47;;;;;;;0.68;0.30;;;12.50;99.90;;;;;;5032087;28;20103;-74
2021/10/07 09:02:29;;;;;;;0.32;0.28;;;12.50;99.90;;;;;;5047866;28;20060;-75
2021/10/07 09:05:05;;;;;;;0.20;0.20;;;12.60;99.90;;;;;;5031917;28;20025;-75
2021/10/07 09:07:31;;;;;;;0.30;0.20;;;12.70;99.90;;;;;;5047664;28;20053;-75
2021/10/07 09:09:57;;;;;;;0.20;0.20;;;12.80;99.90;;;;;;5031041;28;20029;-75
2021/10/07 09:12:24;;;;;;;0.65;0.35;;;12.80;99.90;;;;;;5031073;28;20095;-76
2021/10/07 09:14:51;;;;;;;1.00;0.40;;;12.90;99.90;;;;;;5031625;28;20030;-76
2021/10/07 09:17:19;;;;;;;0.47;0.30;;;13.00;99.90;;;;;;5030892;28;20095;-76
2021/10/07 09:19:49;;;;;;;0.20;0.20;;;13.10;99.90;;;;;;5031661;28;20083;-75
2021/10/07 09:22:23;;;;;;;0.43;0.30;;;13.10;99.90;;;;;;5031851;28;20459;-76
2021/10/07 09:24:55;;;;;;;0.38;0.20;;;13.20;99.90;;;;;;5031548;28;20024;-75
2021/10/07 09:27:28;;;;;;;0.47;0.43;;;13.30;99.90;;;;;;5031769;28;20056;-75
2021/10/07 09:29:59;;;;;;;0.30;0.30;;;13.30;99.90;;;;;;5046662;28;20045;-75
2021/10/07 09:32:42;;;;;;;0.52;0.28;;;13.30;99.90;;;;;;5047291;28;20470;-75
2021/10/07 09:35:10;;;;;;;0.52;0.28;;;13.40;99.90;;;;;;5047485;28;20446;-75
2021/10/07 09:37:37;;;;;;;0.20;0.20;;;13.40;99.90;;;;;;5031396;28;20037;-75
2021/10/07 09:40:14;;;;;;;0.30;0.30;;;13.40;99.90;;;;;;5030635;28;20485;-75
2021/10/07 09:42:48;;;;;;;0.20;0.20;;;13.50;99.90;;;;;;5046366;28;20026;-75
2021/10/07 09:45:18;;;;;;;0.30;0.30;;;13.60;99.90;;;;;;5030058;28;20425;-75
2021/10/07 09:47:46;;;;;;;0.82;0.35;;;13.60;99.90;;;;;;5031354;28;20043;-75
2021/10/07 09:50:20;;;;;;;0.73;0.30;;;13.70;99.90;;;;;;5047001;28;20029;-75
2021/10/07 09:52:50;;;;;;;1.17;0.40;;;13.70;99.90;;;;;;5031267;28;20179;-75
2021/10/07 09:55:22;;;;;;;0.60;0.30;;;13.70;99.90;;;;;;5047289;28;20021;-76
2021/10/07 09:57:53;;;;;;;2.60;0.50;;;13.80;99.90;;;;;;5031056;28;20030;-76
2021/10/07 10:00:20;;;;;;;1.90;0.43;;;13.90;99.90;;;;;;5031357;28;20120;-75
2021/10/07 10:02:46;;;;;;;0.30;0.30;;;13.90;99.90;;;;;;5031145;28;20075;-75
2021/10/07 10:05:13;;;;;;;0.90;0.30;;;13.90;99.90;;;;;;5047050;28;20408;-75
2021/10/07 10:07:43;;;;;;;0.95;0.32;;;14.00;99.90;;;;;;5046468;28;20021;-75
2021/10/07 10:10:10;;;;;;;1.48;0.50;;;14.10;99.90;;;;;;5031456;28;20029;-75
2021/10/07 10:12:36;;;;;;;0.32;0.30;;;14.10;99.90;;;;;;5031688;28;20040;-75
2021/10/07 10:15:03;;;;;;;1.05;0.47;;;14.10;99.90;;;;;;5031379;28;20026;-75
2021/10/07 10:17:29;;;;;;;3.50;0.55;;;14.20;99.90;;;;;;5031823;28;20025;-76
2021/10/07 10:19:57;;;;;;;1.00;0.30;;;14.20;99.90;;;;;;5029342;28;20037;-76
2021/10/07 10:22:24;;;;;;;3.78;0.60;;;14.20;99.90;;;;;;5030165;28;20033;-75
2021/10/07 10:24:51;;;;;;;3.78;0.60;;;14.10;99.90;;;;;;5030807;28;20097;-75
2021/10/07 10:27:17;;;;;;;1.40;0.30;;;14.10;99.90;;;;;;5046496;28;20474;-75
2021/10/07 10:29:43;;;;;;;1.05;0.38;;;14.10;99.90;;;;;;5030780;28;20088;-75
2021/10/07 10:32:12;;;;;;;1.05;0.50;;;14.10;99.90;;;;;;5031435;28;20022;-76
2021/10/07 10:34:44;;;;;;;0.30;0.30;;;14.10;99.90;;;;;;5030985;28;20024;-76
2021/10/07 10:37:11;;;;;;;1.00;0.38;;;14.10;99.90;;;;;;5031735;28;20037;-77
2021/10/07 10:39:39;;;;;;;0.93;0.40;;;14.10;99.90;;;;;;5046580;28;20057;-74
2021/10/07 10:42:17;;;;;;;2.38;0.40;;;14.20;99.90;;;;;;5046640;28;20033;-75
2021/10/07 10:44:54;;;;;;;2.50;0.45;;;14.20;99.80;;;;;;5030645;28;20053;-76
2021/10/07 10:47:28;;;;;;;1.05;0.52;;;14.30;99.80;;;;;;5046463;28;20029;-76
2021/10/07 10:50:06;;;;;;;0.68;0.40;;;14.30;99.80;;;;;;5030686;28;20034;-74
2021/10/07 10:52:40;;;;;;;1.20;0.50;;;14.30;99.70;;;;;;5031402;28;20013;-74
2021/10/07 10:55:28;;;;;;;1.70;0.30;;;14.30;99.70;;;;;;5034895;28;20128;-75
2021/10/07 10:58:04;;;;;;;0.40;0.40;;;14.40;99.70;;;;;;5034053;28;20081;-74
2021/10/07 11:00:32;;;;;;;0.80;0.40;;;14.40;99.70;;;;;;5034267;28;20099;-77
2021/10/07 11:03:17;;;;;;;1.05;0.50;;;14.50;99.70;;;;;;5034304;28;20053;-75
2021/10/07 11:06:06;;;;;;;2.38;0.40;;;14.50;99.60;;;;;;5033888;28;20021;-75
2021/10/07 11:08:49;;;;;;;1.10;0.40;;;14.60;99.60;;;;;;5034332;28;20014;-75
2021/10/07 11:11:36;;;;;;;1.55;0.43;;;14.70;99.50;;;;;;5034660;28;20112;-75
2021/10/07 11:14:02;;;;;;;1.08;0.45;;;14.70;99.60;;;;;;5049210;28;20470;-75
2021/10/07 11:16:29;;;;;;;1.35;0.57;;;14.60;99.60;;;;;;5034477;28;20026;-75
2021/10/07 11:18:55;;;;;;;2.67;0.55;;;14.60;99.70;;;;;;5049131;28;20064;-75
2021/10/07 11:21:22;;;;;;;1.85;0.68;;;14.60;99.80;;;;;;5034325;28;20046;-75
2021/10/07 11:23:52;;;;;;;2.13;0.77;;;14.60;99.90;;;;;;5033360;28;20112;-75
2021/10/07 11:26:19;;;;;;;1.40;0.60;;;14.60;99.90;;;;;;5034154;28;20075;-75
2021/10/07 11:28:47;;;;;;;1.30;0.47;;;14.60;99.80;;;;;;5031902;28;20113;-75
2021/10/07 11:31:15;;;;;;;3.63;1.05;;;14.60;99.80;;;;;;5034152;28;20022;-75
2021/10/07 11:33:43;;;;;;;2.95;0.93;;;14.60;99.90;;;;;;5032816;28;20025;-75
2021/10/07 11:36:12;;;;;;;3.90;1.00;;;14.50;99.90;;;;;;5033965;28;20027;-75
2021/10/07 11:38:41;;;;;;;4.78;1.73;;;14.50;99.90;;;;;;5033970;28;20063;-76
2021/10/07 11:41:08;;;;;;;8.43;1.95;;;14.50;99.90;;;;;;5033318;28;20028;-75
2021/10/07 11:43:37;;;;;;;8.77;1.75;;;14.50;99.90;;;;;;5033555;28;20112;-76
2021/10/07 11:46:06;;;;;;;7.43;2.42;;;14.50;99.90;;;;;;5033281;28;20222;-76
2021/10/07 11:48:31;;;;;;;10.48;2.63;;;14.50;99.90;;;;;;5033938;28;20025;-76
2021/10/07 11:51:01;;;;;;;12.38;3.47;;;14.50;99.90;;;;;;5031850;28;20029;-75
2021/10/07 11:53:33;;;;;;;24.35;4.85;;;14.60;99.90;;;;;;5034072;28;20036;-75
2021/10/07 11:56:01;;;;;;;25.60;4.50;;;14.60;99.90;;;;;;5033116;28;20037;-76
2021/10/07 11:58:28;;;;;;;30.95;6.05;;;14.60;99.90;;;;;;5033713;28;20032;-75
2021/10/07 12:00:55;;;;;;;26.42;6.13;;;14.60;99.90;;;;;;5033193;28;20474;-75
2021/10/07 12:03:32;;;;;;;27.25;7.22;;;14.60;99.90;;;;;;5033640;28;20087;-75
2021/10/07 12:06:04;;;;;;;26.25;6.28;;;14.60;99.90;;;;;;5032927;28;20036;-75
2021/10/07 12:08:34;;;;;;;29.02;7.30;;;14.60;99.90;;;;;;5033355;28;20033;-76
2021/10/07 12:11:06;;;;;;;38.58;7.72;;;14.60;99.90;;;;;;5032920;28;20029;-76
2021/10/07 12:13:32;;;;;;;;;;;14.70;99.90;;;;;;5033846;28;20101;-76
2021/10/07 12:16:14;;;;;;;37.88;8.10;;;14.70;99.90;;;;;;5032785;28;19905;-76
2021/10/07 12:18:44;;;;;;;40.97;8.32;;;14.70;99.80;;;;;;5033478;28;20025;-76
2021/10/07 12:21:14;;;;;;;34.65;7.97;;;14.80;99.80;;;;;;5033133;28;20022;-75
2021/10/07 12:23:55;;;;;;;42.85;9.25;;;14.90;99.70;;;;;;5033143;28;20051;-75
2021/10/07 12:26:49;;;;;;;45.80;10.73;;;14.90;99.50;;;;;;5031897;28;20083;-75
2021/10/07 12:29:26;;;;;;;52.83;10.30;;;15.00;99.40;;;;;;5031686;28;20025;-76
2021/10/07 12:32:12;;;;;;;43.63;9.88;;;15.00;99.40;;;;;;5032206;28;20022;-75
2021/10/07 12:34:40;;;;;;;53.53;11.07;;;15.00;99.40;;;;;;5031762;28;20018;-75
2021/10/07 12:37:11;;;;;;;50.83;11.38;;;15.00;99.50;;;;;;5032011;28;20372;-75
2021/10/07 12:39:40;;;;;;;48.10;11.82;;;15.00;99.50;;;;;;5033114;28;20112;-75
2021/10/07 12:42:33;;;;;;;52.97;11.40;;;15.00;99.50;;;;;;5030680;28;20033;-74
2021/10/07 12:45:00;;;;;;;61.58;12.80;;;15.00;99.60;;;;;;5029968;28;20068;-75
2021/10/07 12:47:28;;;;;;;52.25;12.52;;;15.10;99.60;;;;;;5032358;28;20060;-75
2021/10/07 12:49:55;;;;;;;54.15;12.65;;;15.10;99.50;;;;;;5030608;28;20033;-75
2021/10/07 12:52:24;;;;;;;53.10;12.32;;;15.20;99.40;;;;;;5032597;28;20454;-75